createdAt,value
2023-01-29T04:12:01.164Z,5.83
2023-01-29T04:14:33.628Z,6.87
2023-01-29T04:17:10.580Z,5.97
2023-01-29T04:19:48.211Z,6.23
2023-01-29T04:22:21.725Z,6.60
2023-01-29T04:24:53.158Z,6.50
2023-01-29T04:27:32.693Z,6.70
2023-01-29T04:30:30.156Z,6.90
2023-01-29T04:33:12.415Z,6.90
2023-01-29T04:36:02.140Z,6.13
2023-01-29T04:38:41.740Z,7.43
2023-01-29T04:41:17.927Z,5.77
2023-01-29T04:43:57.138Z,6.47
2023-01-29T04:46:31.658Z,6.60
2023-01-29T04:49:12.140Z,6.37
2023-01-29T04:51:49.677Z,6.97
2023-01-29T04:54:25.191Z,6.97
2023-01-29T04:56:58.312Z,6.20
2023-01-29T04:59:35.154Z,6.23
2023-01-29T05:02:10.835Z,6.53
2023-01-29T05:04:40.976Z,6.37
2023-01-29T05:07:13.741Z,6.60
2023-01-29T05:09:45.177Z,6.20
2023-01-29T05:12:18.961Z,6.17
2023-01-29T05:14:50.525Z,5.97
2023-01-29T05:17:21.534Z,6.10
2023-01-29T05:19:50.697Z,6.83
2023-01-29T05:22:22.890Z,9.77
2023-01-29T05:24:51.521Z,7.00
2023-01-29T05:27:45.303Z,7.23
2023-01-29T05:30:15.578Z,6.80
2023-01-29T05:32:43.947Z,6.77
2023-01-29T05:35:12.152Z,6.67
2023-01-29T05:37:40.368Z,7.10
2023-01-29T05:40:10.254Z,7.03
2023-01-29T05:42:38.507Z,6.97
2023-01-29T05:45:07.929Z,7.23
2023-01-29T05:47:38.045Z,6.77
2023-01-29T05:50:07.280Z,7.33
2023-01-29T05:52:35.539Z,9.63
2023-01-29T05:55:03.769Z,8.13
2023-01-29T05:57:31.984Z,7.40
2023-01-29T06:00:00.223Z,7.40
2023-01-29T06:02:30.999Z,7.77
2023-01-29T06:05:00.671Z,8.60
2023-01-29T06:07:29.199Z,7.10
2023-01-29T06:09:57.536Z,7.40
2023-01-29T06:12:26.138Z,7.63
2023-01-29T06:14:54.698Z,7.50
2023-01-29T06:17:23.172Z,6.63
2023-01-29T06:19:51.595Z,7.47
2023-01-29T06:22:21.513Z,6.70
2023-01-29T06:24:49.913Z,6.70
2023-01-29T06:27:18.286Z,7.97
2023-01-29T06:29:47.935Z,7.93
2023-01-29T06:32:16.309Z,7.53
2023-01-29T06:34:44.728Z,7.60
2023-01-29T06:37:15.003Z,6.60
2023-01-29T06:39:44.808Z,7.83
2023-01-29T06:42:13.466Z,7.00
2023-01-29T06:44:41.902Z,7.50
2023-01-29T06:47:10.345Z,7.37
2023-01-29T06:49:38.704Z,7.40
2023-01-29T06:52:07.109Z,6.93
2023-01-29T06:54:35.520Z,7.97
2023-01-29T06:57:05.312Z,7.60
2023-01-29T06:59:33.586Z,7.07
2023-01-29T07:02:01.890Z,7.17
2023-01-29T07:04:31.502Z,7.63
2023-01-29T07:07:00.913Z,7.90
2023-01-29T07:09:29.180Z,8.50
2023-01-29T07:11:57.382Z,9.23
2023-01-29T07:14:26.950Z,7.80
2023-01-29T07:16:55.232Z,8.13
2023-01-29T07:19:24.027Z,8.33
2023-01-29T07:21:52.243Z,7.13
2023-01-29T07:24:20.783Z,7.67
2023-01-29T07:26:49.029Z,8.20
2023-01-29T07:29:17.203Z,7.90
2023-01-29T07:31:46.895Z,8.17
2023-01-29T07:34:15.165Z,9.03
2023-01-29T07:36:43.389Z,8.40
2023-01-29T07:39:11.588Z,7.87
2023-01-29T07:41:39.815Z,8.33
2023-01-29T07:44:17.136Z,7.73
2023-01-29T07:46:46.699Z,7.90
2023-01-29T07:49:15.045Z,9.10
2023-01-29T07:51:43.272Z,8.80
2023-01-29T07:54:11.504Z,8.13
2023-01-29T07:56:39.706Z,8.70
2023-01-29T07:59:07.909Z,8.60
2023-01-29T08:01:36.265Z,7.97
2023-01-29T08:04:06.088Z,7.87
2023-01-29T08:06:34.335Z,8.43
2023-01-29T08:09:02.574Z,8.47
2023-01-29T08:11:30.804Z,8.93
2023-01-29T08:13:59.026Z,8.40
2023-01-29T08:16:27.335Z,8.30
2023-01-29T08:18:55.595Z,8.17
2023-01-29T08:21:25.193Z,8.00
2023-01-29T08:23:53.512Z,8.73
2023-01-29T08:26:22.098Z,9.87
2023-01-29T08:28:50.359Z,8.70
2023-01-29T08:31:20.627Z,8.80
2023-01-29T08:33:49.200Z,8.23
2023-01-29T08:36:17.523Z,10.67
2023-01-29T08:38:47.167Z,9.47
2023-01-29T08:41:15.384Z,10.70
2023-01-29T08:43:43.620Z,8.67
2023-01-29T08:46:11.919Z,8.50
2023-01-29T08:48:40.161Z,8.97
2023-01-29T08:51:08.640Z,8.53
2023-01-29T08:53:37.086Z,8.83
2023-01-29T08:56:07.276Z,9.70
2023-01-29T08:58:35.544Z,10.77
2023-01-29T09:01:07.977Z,10.17
2023-01-29T09:03:41.014Z,8.50
2023-01-29T09:06:10.818Z,9.00
2023-01-29T09:08:39.628Z,8.93
2023-01-29T09:11:09.888Z,7.63
2023-01-29T09:13:38.611Z,7.73
2023-01-29T09:16:07.522Z,8.07
2023-01-29T09:18:35.832Z,8.07
2023-01-29T09:21:04.207Z,7.97
2023-01-29T09:23:33.147Z,8.27
2023-01-29T09:26:01.858Z,7.93
2023-01-29T09:28:31.516Z,8.17
2023-01-29T09:31:02.378Z,8.83
2023-01-29T09:33:31.054Z,7.87
2023-01-29T09:35:59.432Z,8.00
2023-01-29T09:38:27.915Z,8.17
2023-01-29T09:41:05.411Z,7.47
2023-01-29T09:43:44.176Z,7.73
2023-01-29T09:46:20.995Z,8.03
2023-01-29T09:48:54.398Z,7.73
2023-01-29T09:51:29.383Z,8.70
2023-01-29T09:54:07.853Z,8.73
2023-01-29T09:56:36.768Z,9.07
2023-01-29T09:59:06.491Z,8.73
2023-01-29T10:01:40.661Z,9.50
2023-01-29T10:04:27.970Z,8.27
2023-01-29T10:07:11.674Z,8.43
2023-01-29T10:10:08.527Z,9.93
2023-01-29T10:12:53.840Z,8.83
2023-01-29T10:15:40.809Z,8.77
2023-01-29T10:18:39.137Z,9.13
2023-01-29T10:21:24.377Z,8.47
2023-01-29T10:23:55.477Z,8.13
2023-01-29T10:26:27.603Z,9.00
2023-01-29T10:28:58.060Z,11.37
2023-01-29T10:31:34.382Z,9.53
2023-01-29T10:34:07.567Z,9.17
2023-01-29T10:36:39.799Z,9.23
2023-01-29T10:39:16.697Z,9.33
2023-01-29T10:41:57.201Z,9.07
2023-01-29T10:44:37.008Z,9.77
2023-01-29T10:47:30.583Z,8.90
2023-01-29T10:50:16.600Z,10.43
2023-01-29T10:53:02.978Z,11.60
2023-01-29T10:55:44.493Z,11.13
2023-01-29T10:58:23.901Z,12.33
2023-01-29T11:00:53.505Z,8.73
2023-01-29T11:03:28.662Z,11.63
2023-01-29T11:06:05.333Z,11.53
2023-01-29T11:08:38.543Z,10.23
2023-01-29T11:11:10.534Z,12.90
2023-01-29T11:13:44.656Z,11.73
2023-01-29T11:16:13.574Z,13.07
2023-01-29T11:18:57.757Z,10.90
2023-01-29T11:21:27.499Z,10.67
2023-01-29T11:24:12.833Z,10.60
2023-01-29T11:26:43.427Z,10.97
2023-01-29T11:29:38.387Z,10.60
2023-01-29T11:32:09.274Z,9.53
2023-01-29T11:34:59.876Z,10.57
2023-01-29T11:37:35.271Z,10.70
2023-01-29T11:40:29.507Z,10.33
2023-01-29T11:43:11.038Z,10.50
2023-01-29T11:45:40.977Z,11.60
2023-01-29T11:48:16.942Z,10.93
2023-01-29T11:51:00.832Z,9.27
2023-01-29T11:53:48.653Z,9.60
2023-01-29T11:56:23.593Z,9.53
2023-01-29T11:58:53.814Z,9.90
2023-01-29T12:01:33.001Z,9.57
2023-01-29T12:04:02.607Z,9.80
2023-01-29T12:06:36.920Z,10.17
2023-01-29T12:09:11.581Z,10.27
2023-01-29T12:11:41.247Z,9.80
2023-01-29T12:14:28.230Z,9.87
2023-01-29T12:17:00.795Z,9.37
2023-01-29T12:19:35.802Z,9.73
2023-01-29T12:22:11.887Z,9.10
2023-01-29T12:24:46.120Z,10.73
2023-01-29T12:27:22.403Z,11.17
2023-01-29T12:29:57.886Z,11.13
2023-01-29T12:32:35.861Z,12.00
2023-01-29T12:35:13.096Z,10.47
2023-01-29T12:37:50.796Z,12.83
2023-01-29T12:40:20.756Z,12.00
2023-01-29T12:42:51.843Z,15.03
2023-01-29T12:45:23.095Z,17.10
2023-01-29T12:47:55.292Z,14.70
2023-01-29T12:50:30.767Z,13.23
2023-01-29T12:53:03.887Z,14.47
2023-01-29T12:55:38.199Z,12.37
2023-01-29T12:58:18.931Z,11.90
2023-01-29T13:00:58.507Z,15.30
2023-01-29T13:03:34.417Z,15.97
2023-01-29T13:06:08.619Z,16.23
2023-01-29T13:08:42.633Z,14.90
2023-01-29T13:11:25.179Z,14.43
2023-01-29T13:14:12.131Z,13.97
2023-01-29T13:16:47.007Z,14.63
2023-01-29T13:19:24.197Z,12.97
2023-01-29T13:21:54.950Z,11.03
2023-01-29T13:24:27.202Z,12.77
2023-01-29T13:26:57.912Z,13.23
2023-01-29T13:29:29.163Z,13.30
2023-01-29T13:31:59.092Z,14.47
2023-01-29T13:34:31.811Z,15.03
2023-01-29T13:37:03.882Z,15.23
2023-01-29T13:39:44.533Z,15.63
2023-01-29T13:42:19.203Z,15.00
2023-01-29T13:44:50.779Z,14.83
2023-01-29T13:47:25.966Z,15.53
2023-01-29T13:50:01.495Z,17.37
2023-01-29T13:52:39.991Z,15.93
2023-01-29T13:55:26.271Z,15.37
2023-01-29T13:57:56.337Z,15.37
2023-01-29T14:00:59.306Z,15.13
2023-01-29T14:04:04.814Z,14.53
2023-01-29T14:06:51.526Z,14.27
2023-01-29T14:09:55.952Z,14.00
2023-01-29T14:12:38.950Z,15.03
2023-01-29T14:15:22.124Z,13.63
2023-01-29T14:18:16.698Z,14.90
2023-01-29T14:21:00.817Z,17.57
2023-01-29T14:23:40.450Z,16.27
2023-01-29T14:26:23.752Z,17.90
2023-01-29T14:29:03.903Z,17.50
2023-01-29T14:31:38.778Z,20.00
2023-01-29T14:34:15.000Z,18.50
2023-01-29T14:36:45.724Z,18.03
2023-01-29T14:39:29.322Z,17.47
2023-01-29T14:41:58.329Z,17.67
2023-01-29T14:45:04.177Z,18.93
2023-01-29T14:48:00.868Z,18.93
2023-01-29T14:50:59.414Z,19.17
2023-01-29T14:53:47.368Z,18.37
2023-01-29T14:56:18.603Z,18.90
2023-01-29T14:58:50.180Z,19.27
2023-01-29T15:01:26.467Z,17.90
2023-01-29T15:04:03.952Z,18.70
2023-01-29T15:06:44.859Z,21.20
2023-01-29T15:09:18.912Z,19.33
2023-01-29T15:11:56.588Z,20.50
2023-01-29T15:14:32.769Z,18.93
2023-01-29T15:17:08.850Z,21.80
2023-01-29T15:19:44.864Z,19.70
2023-01-29T15:22:14.723Z,21.13
2023-01-29T15:24:44.867Z,21.10
2023-01-29T15:27:17.262Z,19.70
2023-01-29T15:29:50.985Z,21.17
2023-01-29T15:32:30.815Z,21.40
2023-01-29T15:35:02.120Z,22.40
2023-01-29T15:37:33.163Z,22.53
2023-01-29T15:40:03.357Z,23.10
2023-01-29T15:42:46.788Z,18.67
2023-01-29T15:45:31.221Z,19.60
2023-01-29T15:48:05.044Z,17.23
2023-01-29T15:50:40.564Z,19.73
2023-01-29T15:53:14.937Z,21.37
2023-01-29T15:55:43.816Z,17.60
2023-01-29T15:58:17.309Z,16.77
2023-01-29T16:00:51.243Z,16.43
2023-01-29T16:03:23.255Z,14.93
2023-01-29T16:05:53.723Z,18.87
2023-01-29T16:08:22.996Z,17.00
2023-01-29T16:10:54.936Z,14.73
2023-01-29T16:13:25.914Z,16.83
2023-01-29T16:15:59.520Z,18.03
2023-01-29T16:18:33.952Z,19.13
2023-01-29T16:21:08.870Z,19.07
2023-01-29T16:23:42.316Z,20.40
2023-01-29T16:26:16.933Z,17.43
2023-01-29T16:28:46.423Z,17.73
2023-01-29T16:31:21.717Z,15.53
2023-01-29T16:33:50.144Z,15.30
2023-01-29T16:36:21.980Z,15.53
2023-01-29T16:38:54.233Z,16.53
2023-01-29T16:41:32.165Z,16.03
2023-01-29T16:44:02.206Z,19.13
2023-01-29T16:46:35.868Z,18.30
2023-01-29T16:49:26.137Z,18.13
2023-01-29T16:51:57.007Z,17.63
2023-01-29T16:54:26.751Z,19.20
2023-01-29T16:56:59.884Z,18.73
2023-01-29T16:59:34.514Z,20.57
2023-01-29T17:02:03.405Z,18.67
2023-01-29T17:04:31.795Z,18.43
2023-01-29T17:07:03.106Z,19.80
2023-01-29T17:09:35.712Z,18.50
2023-01-29T17:12:06.913Z,18.47
2023-01-29T17:14:38.747Z,19.97
2023-01-29T17:17:15.461Z,20.27
2023-01-29T17:19:43.898Z,20.03
2023-01-29T17:22:18.920Z,22.63
2023-01-29T17:24:51.457Z,20.20
2023-01-29T17:27:22.388Z,19.07
2023-01-29T17:29:52.666Z,20.00
2023-01-29T17:32:44.080Z,21.23
2023-01-29T17:35:14.311Z,21.63
2023-01-29T17:37:44.491Z,20.50
2023-01-29T17:40:21.573Z,20.63
2023-01-29T17:42:49.878Z,22.67
2023-01-29T17:45:18.539Z,30.63
2023-01-29T17:47:47.027Z,28.00
2023-01-29T17:50:22.444Z,36.03
2023-01-29T17:52:53.294Z,30.27
2023-01-29T17:55:21.902Z,25.87
2023-01-29T17:57:50.240Z,21.87
2023-01-29T18:00:21.662Z,22.90
2023-01-29T18:02:50.099Z,21.70
2023-01-29T18:05:19.649Z,22.90
2023-01-29T18:07:51.714Z,26.60
2023-01-29T18:10:23.066Z,27.10
2023-01-29T18:12:51.396Z,28.67
2023-01-29T18:15:19.974Z,21.13
2023-01-29T18:17:49.063Z,21.63
2023-01-29T18:20:23.688Z,32.87
2023-01-29T18:22:52.085Z,25.13
2023-01-29T18:25:24.092Z,31.47
2023-01-29T18:27:53.122Z,26.90
2023-01-29T18:30:21.424Z,30.47
2023-01-29T18:32:50.357Z,25.07
2023-01-29T18:35:19.001Z,23.17
2023-01-29T18:37:47.731Z,24.53
2023-01-29T18:40:17.422Z,23.00
2023-01-29T18:42:47.674Z,22.77
2023-01-29T18:45:16.848Z,25.80
2023-01-29T18:47:46.143Z,23.67
2023-01-29T18:50:14.519Z,21.63
2023-01-29T18:52:44.286Z,23.73
2023-01-29T18:55:12.636Z,24.20
2023-01-29T18:58:26.740Z,25.33
2023-01-29T19:00:30.571Z,31.93
2023-01-29T19:02:58.857Z,30.53
2023-01-29T19:05:27.211Z,28.00
2023-01-29T19:07:55.517Z,27.30
2023-01-29T19:10:23.776Z,25.10
2023-01-29T19:12:52.074Z,23.70
2023-01-29T19:15:22.075Z,22.93
2023-01-29T19:17:51.965Z,23.13
2023-01-29T19:20:20.472Z,20.97
2023-01-29T19:22:48.703Z,21.40
2023-01-29T19:25:17.698Z,21.80
2023-01-29T19:27:46.576Z,22.10
2023-01-29T19:30:15.225Z,20.87
2023-01-29T19:32:43.565Z,21.07
2023-01-29T19:35:13.168Z,22.63
2023-01-29T19:37:41.471Z,22.60
2023-01-29T19:40:11.109Z,21.73
2023-01-29T19:42:39.869Z,24.03
2023-01-29T19:45:09.972Z,22.67
2023-01-29T19:47:40.015Z,23.40
2023-01-29T19:50:09.453Z,22.50
2023-01-29T19:52:50.817Z,22.60
2023-01-29T19:55:20.945Z,23.27
2023-01-29T19:57:49.584Z,21.03
2023-01-29T20:00:19.676Z,22.23
2023-01-29T20:02:48.309Z,21.10
2023-01-29T20:05:18.548Z,22.03
2023-01-29T20:07:49.877Z,22.07
2023-01-29T20:10:18.793Z,22.33
2023-01-29T20:12:47.690Z,22.27
2023-01-29T20:15:16.616Z,21.37
2023-01-29T20:17:45.779Z,21.93
2023-01-29T20:20:15.051Z,22.67
2023-01-29T20:22:43.460Z,19.43
2023-01-29T20:25:14.308Z,20.53
2023-01-29T20:27:42.770Z,21.10
2023-01-29T20:30:12.353Z,22.07
2023-01-29T20:32:40.668Z,22.53
2023-01-29T20:35:10.282Z,23.67
2023-01-29T20:37:38.598Z,21.17
2023-01-29T20:40:07.789Z,25.83
2023-01-29T20:42:37.408Z,23.10
2023-01-29T20:45:06.637Z,23.63
2023-01-29T20:47:35.292Z,20.80
2023-01-29T20:50:08.620Z,21.10
2023-01-29T20:52:37.806Z,20.70
2023-01-29T20:55:08.552Z,20.23
2023-01-29T20:57:39.115Z,19.23
2023-01-29T21:00:09.062Z,21.00
2023-01-29T21:02:37.371Z,20.47
2023-01-29T21:05:06.791Z,20.20
2023-01-29T21:07:36.205Z,20.23
2023-01-29T21:10:04.807Z,21.00
2023-01-29T21:12:33.176Z,18.97
2023-01-29T21:15:03.192Z,19.60
2023-01-29T21:17:31.643Z,20.00
2023-01-29T21:20:01.323Z,19.90
2023-01-29T21:22:29.830Z,20.07
2023-01-29T21:24:58.235Z,18.00
2023-01-29T21:27:26.795Z,20.43
2023-01-29T21:29:55.049Z,19.67
2023-01-29T21:32:24.715Z,18.27
2023-01-29T21:34:52.927Z,17.07
2023-01-29T21:37:21.156Z,19.03
2023-01-29T21:39:49.453Z,20.97
2023-01-29T21:42:34.925Z,20.53
2023-01-29T21:45:03.166Z,17.20
2023-01-29T21:47:32.922Z,17.70
2023-01-29T21:50:01.185Z,17.17
2023-01-29T21:52:29.423Z,18.23
2023-01-29T21:54:57.641Z,18.90
2023-01-29T21:57:26.720Z,18.40
2023-01-29T21:59:54.979Z,19.30
2023-01-29T22:02:26.296Z,18.63
2023-01-29T22:05:08.809Z,17.87
2023-01-29T22:07:45.662Z,18.20
2023-01-29T22:10:14.386Z,20.07
2023-01-29T22:12:43.182Z,21.07
2023-01-29T22:15:12.866Z,19.97
2023-01-29T22:17:41.695Z,21.23
2023-01-29T22:20:14.826Z,19.53
2023-01-29T22:22:43.350Z,19.07
2023-01-29T22:25:11.998Z,21.53
2023-01-29T22:27:40.270Z,20.57
2023-01-29T22:30:10.149Z,19.67
2023-01-29T22:32:38.429Z,21.00
2023-01-29T22:35:07.811Z,21.27
2023-01-29T22:37:37.604Z,22.37
2023-01-29T22:40:06.889Z,19.23
2023-01-29T22:42:35.115Z,22.03
2023-01-29T22:45:03.345Z,19.77
2023-01-29T22:47:33.585Z,19.83
2023-01-29T22:50:01.874Z,21.60
2023-01-29T22:52:38.650Z,18.23
2023-01-29T22:55:11.239Z,19.10
2023-01-29T22:57:40.467Z,19.00
2023-01-29T23:00:12.705Z,18.60
2023-01-29T23:02:40.934Z,20.03
2023-01-29T23:05:09.742Z,19.83
